Long Beach, CA (90840)

2:01 AM PDT on August 01, 2015 (GMT -0700)
Belmont Heights | | Change Station
CLOSE
Current Station
Personal Weather Station
Location: Long Beach, CA
Elevation: 43 ft
Nearby Weather Stations

Elev 43 ft 33.76 °N, 118.14 °W | Updated 38 seconds ago

Overcast
Overcast
68.2 °F
Feels Like 68.2 °F
N
0.0
Wind Variable Wind from South
Gusts 0.0 mph

Today
High -- | Low -- °F
--% Chance of Precip.
Yesterday
High -- | Low -- °F
Precip. -- in
6:04 AM 7:52 PM
Full, 99% visible
Pressure 29.96 in
Visibility 6.0 miles
Clouds Overcast 800 ft
Dew Point 66 °F
Humidity 94%
Rainfall 0.00 in
Snow Depth Not available.
UV 0.0 out of 12
Pollen 3.10 out of 12
Air Quality Not available.
Flu Activity Not available.
METAR KLGB 010853Z 32004KT 6SM BR OVC008 21/19 A2996 RMK AO2 SLP145 T02110189 50001

More Conditions Fewer Conditions

Pressure 29.96 in
Visibility 6.0 miles
Clouds Overcast 800 ft
Dew Point 66 °F
Humidity 94%
Rainfall 0.00 in
Snow Depth Not available.
UV 0.0 out of 12
Pollen 3.10 out of 12
Air Quality Not available.
Flu Activity Not available.
METAR KLGB 010853Z 32004KT 6SM BR OVC008 21/19 A2996 RMK AO2 SLP145 T02110189 50001

More Conditions Fewer Conditions

10-Day Weather Forecast

×

Almanac

Astronomy

Aug. 01, 2015 Rise Set
Actual Time
Civil Twilight
Nautical Twilight
Astronomical Twilight
Moon
Length of Visible Light
Length of Day
Tomorrow will be .
, % of the Moon is Illuminated

Today's Extremes

State Highs State Lows

Community

WunderPhotos

Upload Photos

1,842,905 photos uploaded!

WunderBlogs® & News

Nearby

Air Quality

  Air Quality AQ Index Pollutant
Not available.

Snow Depth

Station Depth Elevation

Earthquake Activity

City Distance Mag. Time & Date
Minimum magnitude displayed is 2.5.

Coastal Water Temperatures

Place Temperature

Stations

Nearby Weather Stations

Station Location Temp. Windchill Dew Point Humidity Wind Precip. Elev Updated Type